createdAt,value
2017-09-22T00:00:49.902Z,26.43
2017-09-22T00:03:17.374Z,22.60
2017-09-22T00:05:44.839Z,23.13
2017-09-22T00:08:12.289Z,24.10
2017-09-22T00:10:39.746Z,22.43
2017-09-22T00:13:07.206Z,23.00
2017-09-22T00:15:34.662Z,26.30
2017-09-22T00:18:02.898Z,26.97
2017-09-22T00:20:30.365Z,25.17
2017-09-22T00:22:57.815Z,31.10
2017-09-22T00:25:25.272Z,26.13
2017-09-22T00:27:52.731Z,22.20
2017-09-22T00:30:20.186Z,23.87
2017-09-22T00:32:47.656Z,24.83
2017-09-22T00:35:15.106Z,22.63
2017-09-22T00:37:42.561Z,21.00
2017-09-22T00:40:10.018Z,23.90
2017-09-22T00:42:37.485Z,23.77
2017-09-22T00:45:04.937Z,24.10
2017-09-22T00:47:32.390Z,22.60
2017-09-22T00:49:59.858Z,26.10
2017-09-22T00:52:27.342Z,23.10
2017-09-22T00:54:54.797Z,22.67
2017-09-22T00:57:22.260Z,27.37
2017-09-22T00:59:49.722Z,24.37
2017-09-22T01:02:17.954Z,25.23
2017-09-22T01:04:45.416Z,27.10
2017-09-22T01:07:12.863Z,26.60
2017-09-22T01:09:41.084Z,25.93
2017-09-22T01:12:09.323Z,28.00
2017-09-22T01:14:36.809Z,26.20
2017-09-22T01:17:04.259Z,24.00
2017-09-22T01:19:31.717Z,27.67
2017-09-22T01:21:59.161Z,24.30
2017-09-22T01:24:26.618Z,28.20
2017-09-22T01:26:54.085Z,30.00
2017-09-22T01:29:21.542Z,27.93
2017-09-22T01:31:48.991Z,37.27
2017-09-22T01:34:16.442Z,29.60
2017-09-22T01:36:43.888Z,30.10
2017-09-22T01:39:11.347Z,26.60
2017-09-22T01:41:38.799Z,25.70
2017-09-22T01:44:06.288Z,27.23
2017-09-22T01:46:33.734Z,30.07
2017-09-22T01:49:01.203Z,31.70
2017-09-22T01:51:28.657Z,29.93
2017-09-22T01:53:57.623Z,29.37
2017-09-22T01:56:25.134Z,27.53
2017-09-22T01:58:53.353Z,28.07
2017-09-22T02:01:20.824Z,27.50
2017-09-22T02:03:48.297Z,28.23
2017-09-22T02:06:15.763Z,26.30
2017-09-22T02:08:43.995Z,26.67
2017-09-22T02:11:12.221Z,24.60
2017-09-22T02:13:40.445Z,26.90
2017-09-22T02:16:08.672Z,28.60
2017-09-22T02:18:36.890Z,23.53
2017-09-22T02:21:04.350Z,25.50
2017-09-22T02:23:31.808Z,26.13
2017-09-22T02:25:59.286Z,26.03
2017-09-22T02:28:27.505Z,27.37
2017-09-22T02:30:55.811Z,26.07
2017-09-22T02:33:23.274Z,23.47
2017-09-22T02:35:50.729Z,25.83
2017-09-22T02:38:18.193Z,24.40
2017-09-22T02:40:45.661Z,25.33
2017-09-22T02:43:13.143Z,25.30
2017-09-22T02:45:40.598Z,32.97
2017-09-22T02:48:08.054Z,23.30
2017-09-22T02:50:35.510Z,25.90
2017-09-22T02:53:02.970Z,29.43
2017-09-22T02:55:30.425Z,24.83
2017-09-22T02:57:57.896Z,25.50
2017-09-22T03:00:25.346Z,25.50
2017-09-22T03:02:52.802Z,22.03
2017-09-22T03:05:20.256Z,25.93
2017-09-22T03:07:47.702Z,22.50
2017-09-22T03:10:15.171Z,25.73
2017-09-22T03:12:42.633Z,22.40
2017-09-22T03:15:10.867Z,24.67
2017-09-22T03:17:38.333Z,24.53
2017-09-22T03:20:06.562Z,24.17
2017-09-22T03:22:34.781Z,26.40
2017-09-22T03:25:02.237Z,27.20
2017-09-22T03:27:29.713Z,22.60
2017-09-22T03:29:57.169Z,27.33
2017-09-22T03:32:24.621Z,28.10
2017-09-22T03:34:52.078Z,30.53
2017-09-22T03:37:19.537Z,31.37
2017-09-22T03:39:48.364Z,29.67
2017-09-22T03:42:16.576Z,29.07
2017-09-22T03:44:44.062Z,28.23
2017-09-22T03:47:11.515Z,27.00
2017-09-22T03:49:39.729Z,24.83
2017-09-22T03:52:07.229Z,24.17
2017-09-22T03:54:34.685Z,25.30
2017-09-22T03:57:02.145Z,26.40
2017-09-22T03:59:29.598Z,23.50
2017-09-22T04:01:57.077Z,23.67
2017-09-22T04:04:24.525Z,25.93
2017-09-22T04:06:51.990Z,24.93
2017-09-22T04:09:19.447Z,21.77
2017-09-22T04:11:46.902Z,26.60
2017-09-22T04:14:14.370Z,23.13
2017-09-22T04:16:41.829Z,23.00
2017-09-22T04:19:09.293Z,22.40
2017-09-22T04:21:36.759Z,21.37
2017-09-22T04:24:04.209Z,24.20
2017-09-22T04:26:31.686Z,23.67
2017-09-22T04:28:59.138Z,21.97
2017-09-22T04:31:26.681Z,21.97
2017-09-22T04:33:54.151Z,24.00
2017-09-22T04:36:21.602Z,22.80
2017-09-22T04:38:49.058Z,21.37
2017-09-22T04:41:16.517Z,21.83
2017-09-22T04:43:43.974Z,21.00
2017-09-22T04:46:11.432Z,22.53
2017-09-22T04:48:38.890Z,22.67
2017-09-22T04:51:06.351Z,26.70
2017-09-22T04:53:33.816Z,33.40
2017-09-22T04:56:01.271Z,37.23
2017-09-22T04:58:29.538Z,35.00
2017-09-22T05:00:57.026Z,34.60
2017-09-22T05:03:24.485Z,34.60
2017-09-22T05:05:51.949Z,29.13
2017-09-22T05:08:19.426Z,31.80
2017-09-22T05:10:46.882Z,28.53
2017-09-22T05:13:14.349Z,28.27
2017-09-22T05:15:41.809Z,26.27
2017-09-22T05:18:09.258Z,29.70
2017-09-22T05:20:36.713Z,29.37
2017-09-22T05:23:04.180Z,27.13
2017-09-22T05:25:31.637Z,31.40
2017-09-22T05:27:59.089Z,40.07
2017-09-22T05:30:26.570Z,36.70
2017-09-22T05:32:54.025Z,36.27
2017-09-22T05:35:21.486Z,36.43
2017-09-22T05:40:22.701Z,32.23
2017-09-22T05:42:50.154Z,31.23
2017-09-22T05:45:17.619Z,27.10
2017-09-22T05:47:45.829Z,28.93
2017-09-22T05:50:13.293Z,27.20
2017-09-22T05:52:40.746Z,28.63
2017-09-22T05:55:08.221Z,31.27
2017-09-22T05:57:35.669Z,28.63
2017-09-22T06:00:03.140Z,32.67
2017-09-22T06:02:30.620Z,36.43
2017-09-22T06:04:58.078Z,36.47
2017-09-22T06:07:26.310Z,32.37
2017-09-22T06:09:53.762Z,31.07
2017-09-22T06:12:21.239Z,30.20
2017-09-22T06:14:48.710Z,32.20
2017-09-22T06:17:16.167Z,29.53
2017-09-22T06:19:43.627Z,31.77
2017-09-22T06:22:11.870Z,30.80
2017-09-22T06:24:39.331Z,31.17
2017-09-22T06:27:06.837Z,25.57
2017-09-22T06:29:34.281Z,34.03
2017-09-22T06:32:02.521Z,29.40
2017-09-22T06:34:29.974Z,26.90
2017-09-22T06:36:58.217Z,31.33
2017-09-22T06:39:26.433Z,34.23
2017-09-22T06:41:54.645Z,33.43
2017-09-22T06:44:22.865Z,34.07
2017-09-22T06:46:50.324Z,32.00
2017-09-22T06:49:20.304Z,33.60
2017-09-22T06:51:47.760Z,30.73
2017-09-22T06:54:15.225Z,29.90
2017-09-22T06:56:42.674Z,29.57
2017-09-22T06:59:10.135Z,30.97
2017-09-22T07:01:37.587Z,39.80
2017-09-22T07:04:05.074Z,29.00
2017-09-22T07:06:32.530Z,30.27
2017-09-22T07:08:59.988Z,33.73
2017-09-22T07:11:27.442Z,29.73
2017-09-22T07:13:54.932Z,34.77
2017-09-22T07:16:22.402Z,33.20
2017-09-22T07:18:49.852Z,35.70
2017-09-22T07:21:17.325Z,31.73
2017-09-22T07:23:45.545Z,31.27
2017-09-22T07:26:13.017Z,30.23
2017-09-22T07:28:40.473Z,29.10
2017-09-22T07:31:07.940Z,27.97
2017-09-22T07:33:35.399Z,33.07
2017-09-22T07:36:02.880Z,30.40
2017-09-22T07:38:30.337Z,38.17
2017-09-22T07:40:57.801Z,28.23
2017-09-22T07:43:25.254Z,30.70
2017-09-22T07:45:52.709Z,28.20
2017-09-22T07:48:20.162Z,33.43
2017-09-22T07:50:47.733Z,31.20
2017-09-22T07:53:15.181Z,33.97
2017-09-22T07:55:42.654Z,43.47
2017-09-22T07:58:10.865Z,26.97
2017-09-22T08:00:38.325Z,30.60
2017-09-22T08:03:05.994Z,31.03
2017-09-22T08:05:33.445Z,26.20
2017-09-22T08:08:00.901Z,29.87
2017-09-22T08:10:29.123Z,26.57
2017-09-22T08:12:56.581Z,28.63
2017-09-22T08:15:24.040Z,29.73
2017-09-22T08:17:51.501Z,32.23
2017-09-22T08:20:18.962Z,32.03
2017-09-22T08:22:47.210Z,32.03
2017-09-22T08:25:15.486Z,34.20
2017-09-22T08:27:43.714Z,37.33
2017-09-22T08:30:11.189Z,33.87
2017-09-22T08:32:38.654Z,34.20
2017-09-22T08:35:06.133Z,31.73
2017-09-22T08:37:34.349Z,35.27
2017-09-22T08:40:02.570Z,34.70
2017-09-22T08:42:30.076Z,31.57
2017-09-22T08:44:58.297Z,32.63
2017-09-22T08:47:25.761Z,39.07
2017-09-22T08:49:53.214Z,33.87
2017-09-22T08:52:20.668Z,37.80
2017-09-22T08:54:48.129Z,30.90
2017-09-22T08:57:15.600Z,29.17
2017-09-22T08:59:43.089Z,32.67
2017-09-22T09:02:11.310Z,33.20
2017-09-22T09:04:38.778Z,27.80
2017-09-22T09:07:06.233Z,25.47
2017-09-22T09:09:34.465Z,26.27
2017-09-22T09:12:02.689Z,22.80
2017-09-22T09:14:30.146Z,21.57
2017-09-22T09:16:57.595Z,25.40
2017-09-22T09:19:25.090Z,22.20
2017-09-22T09:21:52.551Z,20.40
2017-09-22T09:24:20.000Z,24.20
2017-09-22T09:26:47.473Z,18.80
2017-09-22T09:29:15.694Z,26.00
2017-09-22T09:31:43.166Z,21.30
2017-09-22T09:34:10.614Z,22.27
2017-09-22T09:36:38.078Z,24.93
2017-09-22T09:39:05.529Z,25.77
2017-09-22T09:41:33.758Z,25.50
2017-09-22T09:44:01.989Z,27.00
2017-09-22T09:46:29.469Z,30.07
2017-09-22T09:48:56.928Z,23.60
2017-09-22T09:51:24.377Z,25.77
2017-09-22T09:53:52.596Z,30.43
2017-09-22T09:56:20.073Z,28.73
2017-09-22T09:58:47.579Z,25.20
2017-09-22T10:01:14.998Z,25.23
2017-09-22T10:03:42.462Z,21.43
2017-09-22T10:06:09.917Z,25.07
2017-09-22T10:08:37.384Z,23.40
2017-09-22T10:11:05.614Z,28.93
2017-09-22T10:13:33.109Z,22.33
2017-09-22T10:16:01.326Z,16.43
2017-09-22T10:18:29.560Z,14.53
2017-09-22T10:20:57.018Z,14.03
2017-09-22T10:23:25.340Z,14.97
2017-09-22T10:25:53.553Z,21.70
2017-09-22T10:28:21.024Z,18.90
2017-09-22T10:30:48.484Z,17.13
2017-09-22T10:33:15.954Z,18.10
2017-09-22T10:35:43.409Z,18.37
2017-09-22T10:38:10.870Z,17.73
2017-09-22T10:40:38.335Z,24.00
2017-09-22T10:43:05.781Z,25.33
2017-09-22T10:45:34.010Z,19.57
2017-09-22T10:48:01.472Z,21.03
2017-09-22T10:50:28.938Z,20.70
2017-09-22T10:52:56.386Z,19.23
2017-09-22T10:55:23.872Z,15.60
2017-09-22T10:57:51.328Z,19.30
2017-09-22T11:00:18.824Z,19.40
2017-09-22T11:02:46.274Z,19.20
2017-09-22T11:05:13.726Z,14.60
2017-09-22T11:07:42.147Z,15.67
2017-09-22T11:10:10.353Z,12.93
2017-09-22T11:12:37.817Z,12.43
2017-09-22T11:15:05.274Z,10.37
2017-09-22T11:17:32.747Z,10.90
2017-09-22T11:20:00.941Z,10.30
2017-09-22T11:22:28.401Z,9.37
2017-09-22T11:24:55.862Z,10.73
2017-09-22T11:27:23.315Z,9.00
2017-09-22T11:29:50.765Z,7.67
2017-09-22T11:32:18.230Z,12.03
2017-09-22T11:34:45.677Z,10.17
2017-09-22T11:37:13.146Z,12.83
2017-09-22T11:39:40.615Z,12.80
2017-09-22T11:42:08.839Z,16.30
2017-09-22T11:44:36.300Z,12.40
2017-09-22T11:47:03.769Z,16.87
2017-09-22T11:49:31.236Z,18.83
2017-09-22T11:51:58.693Z,16.83
2017-09-22T11:54:26.166Z,16.03
2017-09-22T11:56:53.617Z,13.33
2017-09-22T11:59:21.070Z,12.00
2017-09-22T12:01:48.522Z,14.00
2017-09-22T12:04:15.984Z,14.90
2017-09-22T12:06:43.434Z,10.33
2017-09-22T12:09:10.891Z,15.23
2017-09-22T12:11:38.365Z,15.20
2017-09-22T12:14:05.838Z,10.77
2017-09-22T12:16:33.281Z,9.33
2017-09-22T12:19:00.748Z,14.83
2017-09-22T12:21:28.967Z,12.50
2017-09-22T12:23:57.190Z,12.60
2017-09-22T12:26:25.417Z,8.30
2017-09-22T12:28:52.860Z,9.47
2017-09-22T12:31:20.322Z,9.97
2017-09-22T12:33:47.766Z,6.90
2017-09-22T12:36:15.221Z,6.00
2017-09-22T12:38:42.690Z,5.00
2017-09-22T12:41:10.164Z,9.80
2017-09-22T12:43:37.606Z,9.67
2017-09-22T12:46:05.054Z,9.03
2017-09-22T12:48:32.497Z,10.60
2017-09-22T12:50:59.961Z,9.07
2017-09-22T12:53:27.413Z,7.83
2017-09-22T12:55:54.871Z,6.33
2017-09-22T12:58:22.333Z,11.83
2017-09-22T13:00:49.790Z,8.43
2017-09-22T13:03:17.243Z,5.60
2017-09-22T13:05:44.689Z,5.63
2017-09-22T13:08:12.919Z,5.53
2017-09-22T13:10:40.357Z,4.77
2017-09-22T13:13:07.816Z,6.30
2017-09-22T13:15:35.270Z,7.20
2017-09-22T13:18:02.738Z,8.43
2017-09-22T13:20:30.181Z,8.83
2017-09-22T13:22:57.642Z,7.07
2017-09-22T13:25:25.098Z,6.67
2017-09-22T13:27:52.569Z,13.43
2017-09-22T13:30:20.036Z,5.80
2017-09-22T13:32:47.490Z,8.23
2017-09-22T13:35:14.973Z,10.00
2017-09-22T13:37:42.422Z,9.53
2017-09-22T13:40:09.890Z,9.30
2017-09-22T13:42:37.342Z,6.30
2017-09-22T13:45:04.797Z,6.57
2017-09-22T13:47:32.245Z,10.07
2017-09-22T13:49:59.702Z,7.50
2017-09-22T13:52:27.154Z,6.57
2017-09-22T13:54:54.608Z,5.47
2017-09-22T13:57:22.062Z,5.53
2017-09-22T13:59:49.512Z,8.97
2017-09-22T14:02:17.722Z,7.60
2017-09-22T14:04:45.181Z,5.43
2017-09-22T14:07:12.618Z,6.00
2017-09-22T14:09:40.069Z,4.60
2017-09-22T14:12:07.514Z,4.77
2017-09-22T14:14:35.778Z,5.60
2017-09-22T14:17:03.233Z,6.90
2017-09-22T14:19:30.690Z,5.20
2017-09-22T14:21:58.151Z,9.80
2017-09-22T14:24:25.596Z,7.37
2017-09-22T14:26:53.042Z,7.97
2017-09-22T14:29:20.486Z,7.17
2017-09-22T14:31:48.711Z,9.53
2017-09-22T14:34:16.177Z,7.63
2017-09-22T14:36:43.641Z,6.37
2017-09-22T14:39:11.082Z,6.80
2017-09-22T14:41:38.538Z,7.73
2017-09-22T14:44:06.019Z,8.17
2017-09-22T14:46:33.454Z,8.70
2017-09-22T14:49:00.901Z,13.83
2017-09-22T14:51:28.382Z,14.47
2017-09-22T14:53:55.837Z,8.30
2017-09-22T14:56:23.305Z,12.03
2017-09-22T14:58:50.751Z,7.80
2017-09-22T15:01:18.208Z,8.80
2017-09-22T15:03:46.431Z,9.70
2017-09-22T15:06:13.869Z,8.67
2017-09-22T15:08:42.094Z,12.17
2017-09-22T15:11:09.550Z,10.73
2017-09-22T15:13:37.005Z,9.40
2017-09-22T15:16:04.466Z,11.77
2017-09-22T15:18:31.915Z,8.47
2017-09-22T15:20:59.373Z,10.23
2017-09-22T15:23:26.932Z,10.03
2017-09-22T15:25:54.394Z,9.37
2017-09-22T15:28:21.854Z,11.70
2017-09-22T15:30:49.306Z,10.33
2017-09-22T15:33:16.763Z,10.10
2017-09-22T15:35:44.222Z,10.50
2017-09-22T15:38:11.687Z,13.00
2017-09-22T15:40:39.150Z,9.57
2017-09-22T15:43:06.613Z,12.93
2017-09-22T15:45:34.070Z,9.43
2017-09-22T15:48:02.282Z,11.53
2017-09-22T15:50:29.738Z,12.37
2017-09-22T15:52:57.192Z,14.10
2017-09-22T15:55:24.651Z,12.17
2017-09-22T15:57:52.100Z,12.33
2017-09-22T16:00:19.557Z,17.87
2017-09-22T16:02:47.008Z,24.10
2017-09-22T16:05:14.479Z,27.37
2017-09-22T16:07:41.934Z,19.27
2017-09-22T16:10:09.395Z,18.43
2017-09-22T16:12:36.850Z,18.93
2017-09-22T16:15:04.331Z,19.10
2017-09-22T16:17:31.779Z,17.30
2017-09-22T16:19:59.991Z,15.00
2017-09-22T16:22:27.446Z,18.07
2017-09-22T16:24:54.904Z,28.63
2017-09-22T16:27:22.361Z,26.90
2017-09-22T16:29:49.822Z,32.00
2017-09-22T16:32:17.277Z,33.90
2017-09-22T16:34:45.498Z,32.80
2017-09-22T16:37:12.955Z,51.67
2017-09-22T16:39:40.415Z,39.03
2017-09-22T16:42:07.878Z,39.23
2017-09-22T16:44:36.100Z,38.27
2017-09-22T16:47:04.331Z,42.37
2017-09-22T16:49:32.546Z,32.67
2017-09-22T16:52:00.769Z,36.73
2017-09-22T16:54:28.231Z,39.17
2017-09-22T16:56:55.698Z,36.83
2017-09-22T16:59:23.920Z,40.10
2017-09-22T17:01:51.371Z,39.23
2017-09-22T17:04:18.867Z,42.90
2017-09-22T17:06:46.282Z,45.90
2017-09-22T17:09:14.506Z,45.17
2017-09-22T17:11:41.966Z,52.43
2017-09-22T17:14:09.445Z,43.17
2017-09-22T17:16:36.902Z,36.47
2017-09-22T17:19:05.137Z,36.50
2017-09-22T17:21:32.584Z,41.37
2017-09-22T17:24:00.049Z,30.53
2017-09-22T17:26:28.261Z,32.13
2017-09-22T17:28:56.636Z,26.20
2017-09-22T17:31:24.133Z,21.53
2017-09-22T17:33:51.593Z,22.77
2017-09-22T17:36:19.052Z,26.13
2017-09-22T17:38:46.502Z,27.40
2017-09-22T17:41:13.953Z,19.47
2017-09-22T17:43:41.410Z,13.87
2017-09-22T17:46:08.862Z,16.80
2017-09-22T17:48:36.305Z,16.57
2017-09-22T17:51:04.530Z,14.43
2017-09-22T17:53:31.982Z,16.17
2017-09-22T17:55:59.442Z,15.13
2017-09-22T17:58:26.898Z,13.83
2017-09-22T18:00:54.355Z,18.90
2017-09-22T18:03:21.811Z,16.40
2017-09-22T18:08:23.909Z,12.20
2017-09-22T18:10:51.361Z,18.53
2017-09-22T18:13:19.590Z,12.87
2017-09-22T18:15:47.061Z,14.87
2017-09-22T18:18:14.511Z,13.00
2017-09-22T18:20:41.965Z,11.70
2017-09-22T18:23:09.406Z,12.13
2017-09-22T18:25:37.625Z,10.40
2017-09-22T18:28:05.079Z,11.03
2017-09-22T18:30:32.534Z,12.03
2017-09-22T18:32:59.996Z,13.30
2017-09-22T18:35:27.449Z,15.40
2017-09-22T18:37:54.906Z,12.57
2017-09-22T18:40:22.412Z,11.53
2017-09-22T18:42:49.856Z,12.63
2017-09-22T18:45:18.810Z,14.77
2017-09-22T18:47:46.275Z,10.17
2017-09-22T18:50:13.725Z,10.80
2017-09-22T18:52:41.186Z,12.23
2017-09-22T18:55:08.647Z,10.90
2017-09-22T18:57:36.123Z,10.33
2017-09-22T19:00:04.334Z,11.70
2017-09-22T19:02:32.558Z,11.20
2017-09-22T19:05:00.009Z,10.23
2017-09-22T19:07:27.474Z,15.17
2017-09-22T19:09:54.926Z,12.37
2017-09-22T19:12:22.394Z,10.00
2017-09-22T19:14:50.611Z,11.10
2017-09-22T19:17:18.843Z,11.80
2017-09-22T19:19:46.303Z,13.30
2017-09-22T19:22:13.797Z,10.67
2017-09-22T19:24:42.030Z,12.27
2017-09-22T19:27:09.489Z,10.30
2017-09-22T19:29:36.946Z,11.80
2017-09-22T19:32:04.414Z,14.40
2017-09-22T19:34:31.945Z,13.70
2017-09-22T19:37:00.174Z,11.30
2017-09-22T19:39:27.625Z,10.53
2017-09-22T19:41:55.074Z,13.70
2017-09-22T19:44:22.533Z,10.77
2017-09-22T19:46:49.987Z,11.33
2017-09-22T19:49:17.434Z,14.80
2017-09-22T19:51:44.881Z,13.10
2017-09-22T19:54:12.353Z,11.00
2017-09-22T19:56:39.798Z,11.90
2017-09-22T19:59:07.275Z,15.37
2017-09-22T20:01:34.726Z,14.30
2017-09-22T20:04:03.259Z,12.03
2017-09-22T20:06:30.770Z,20.60
2017-09-22T20:08:58.994Z,15.27
2017-09-22T20:11:26.459Z,15.40
2017-09-22T20:13:53.922Z,16.13
2017-09-22T20:16:21.372Z,14.63
2017-09-22T20:18:48.843Z,12.63
2017-09-22T20:21:16.337Z,10.60
2017-09-22T20:23:43.781Z,11.90
2017-09-22T20:26:11.248Z,13.30
2017-09-22T20:28:38.693Z,11.27
2017-09-22T20:31:06.147Z,11.77
2017-09-22T20:33:33.603Z,13.63
2017-09-22T20:36:01.071Z,11.13
2017-09-22T20:38:28.517Z,12.00
2017-09-22T20:40:55.974Z,11.93
2017-09-22T20:43:23.433Z,17.77
2017-09-22T20:45:50.885Z,16.03
2017-09-22T20:48:18.358Z,13.00
2017-09-22T20:50:45.849Z,13.33
2017-09-22T20:53:13.369Z,12.20
2017-09-22T20:55:40.827Z,19.63
2017-09-22T21:00:42.793Z,9.50
2017-09-22T21:03:10.257Z,16.20
2017-09-22T21:05:37.709Z,15.97
2017-09-22T21:08:05.162Z,15.07
2017-09-22T21:10:32.615Z,17.57
2017-09-22T21:13:00.070Z,17.67
2017-09-22T21:15:28.634Z,14.33
2017-09-22T21:17:56.858Z,13.17
2017-09-22T21:20:24.324Z,14.63
2017-09-22T21:22:51.798Z,11.60
2017-09-22T21:25:20.026Z,10.57
2017-09-22T21:27:47.487Z,12.60
2017-09-22T21:30:14.937Z,15.60
2017-09-22T21:32:42.398Z,11.10
2017-09-22T21:35:09.849Z,14.80
2017-09-22T21:37:37.307Z,17.17
2017-09-22T21:40:04.765Z,20.40
2017-09-22T21:42:32.229Z,11.63
2017-09-22T21:44:59.678Z,13.40
2017-09-22T21:47:27.144Z,11.27
2017-09-22T21:49:54.594Z,12.40
2017-09-22T21:52:22.055Z,10.20
2017-09-22T21:54:49.506Z,10.37
2017-09-22T21:57:16.967Z,13.47
2017-09-22T21:59:44.419Z,13.90
2017-09-22T22:02:11.877Z,10.00
2017-09-22T22:04:45.030Z,11.30
2017-09-22T22:10:10.806Z,16.47
2017-09-22T22:12:38.286Z,11.83
2017-09-22T22:15:05.742Z,11.97
2017-09-22T22:17:33.221Z,11.07
2017-09-22T22:20:00.713Z,9.00
2017-09-22T22:22:28.906Z,10.73
2017-09-22T22:24:56.367Z,9.47
2017-09-22T22:27:24.580Z,12.77
2017-09-22T22:29:52.090Z,12.10
2017-09-22T22:32:19.552Z,8.97
2017-09-22T22:34:47.009Z,9.27
2017-09-22T22:37:14.462Z,10.13
2017-09-22T22:39:41.934Z,12.60
2017-09-22T22:42:09.421Z,11.30
2017-09-22T22:44:36.899Z,11.10
2017-09-22T22:47:04.374Z,13.50
2017-09-22T22:49:31.869Z,11.80
2017-09-22T22:52:00.080Z,10.10
2017-09-22T22:54:28.317Z,10.97
2017-09-22T22:56:55.774Z,10.77
2017-09-22T22:59:23.230Z,10.30
2017-09-22T23:01:50.718Z,11.37
2017-09-22T23:04:18.181Z,8.87
2017-09-22T23:06:46.392Z,12.47
2017-09-22T23:09:13.853Z,9.20
2017-09-22T23:11:42.073Z,12.80
2017-09-22T23:14:09.510Z,9.90
2017-09-22T23:16:36.970Z,9.00
2017-09-22T23:19:05.173Z,8.57
2017-09-22T23:21:32.640Z,16.50
2017-09-22T23:24:01.595Z,9.57
2017-09-22T23:26:30.966Z,8.83
2017-09-22T23:28:58.417Z,11.90
2017-09-22T23:31:26.641Z,10.07
2017-09-22T23:33:54.126Z,11.33
2017-09-22T23:36:21.594Z,10.97
2017-09-22T23:38:49.853Z,12.30
2017-09-22T23:41:17.310Z,12.40
2017-09-22T23:43:44.825Z,8.70
2017-09-22T23:46:12.302Z,10.20
2017-09-22T23:48:39.776Z,12.80
2017-09-22T23:51:07.237Z,10.03
2017-09-22T23:53:34.713Z,11.53
2017-09-22T23:56:02.173Z,9.43
2017-09-22T23:58:29.615Z,9.57
